createdAt,value
2022-12-14T00:00:55.392Z,87.55
2022-12-14T00:03:29.257Z,87.74
2022-12-14T00:06:15.129Z,87.68
2022-12-14T00:08:49.815Z,86.78
2022-12-14T00:11:24.871Z,86.82
2022-12-14T00:14:00.222Z,86.27
2022-12-14T00:16:34.281Z,86.16
2022-12-14T00:19:06.269Z,86.70
2022-12-14T00:21:38.287Z,86.90
2022-12-14T00:24:10.573Z,87.22
2022-12-14T00:26:42.530Z,87.47
2022-12-14T00:29:14.543Z,87.41
2022-12-14T00:31:48.839Z,86.37
2022-12-14T00:34:21.120Z,86.11
2022-12-14T00:36:53.155Z,85.94
2022-12-14T00:39:25.124Z,85.68
2022-12-14T00:41:57.357Z,86.20
2022-12-14T00:44:29.267Z,85.52
2022-12-14T00:47:01.203Z,85.77
2022-12-14T00:49:33.159Z,86.00
2022-12-14T00:52:05.379Z,85.65
2022-12-14T00:54:37.401Z,86.04
2022-12-14T00:57:10.424Z,85.79
2022-12-14T00:59:42.445Z,85.60
2022-12-14T01:02:14.506Z,85.60
2022-12-14T01:04:46.626Z,86.03
2022-12-14T01:07:18.583Z,86.15
2022-12-14T01:09:50.614Z,86.16
2022-12-14T01:12:22.586Z,85.61
2022-12-14T01:14:54.633Z,86.04
2022-12-14T01:17:26.600Z,85.55
2022-12-14T01:19:58.680Z,85.88
2022-12-14T01:22:30.658Z,86.36
2022-12-14T01:25:03.425Z,86.23
2022-12-14T01:27:35.588Z,86.10
2022-12-14T01:30:08.237Z,86.02
2022-12-14T01:32:40.185Z,86.92
2022-12-14T01:35:12.191Z,86.52
2022-12-14T01:37:44.178Z,86.88
2022-12-14T01:40:17.041Z,86.60
2022-12-14T01:42:49.038Z,85.90
2022-12-14T01:45:23.262Z,86.09
2022-12-14T01:47:58.908Z,86.04
2022-12-14T01:50:35.831Z,86.24
2022-12-14T01:53:17.907Z,86.18
2022-12-14T01:55:55.217Z,86.15
2022-12-14T01:58:28.998Z,86.25
2022-12-14T02:01:02.804Z,85.55
2022-12-14T02:03:40.402Z,85.67
2022-12-14T02:06:27.231Z,85.41
2022-12-14T02:08:59.206Z,84.83
2022-12-14T02:11:56.192Z,85.29
2022-12-14T02:14:28.445Z,85.06
2022-12-14T02:17:00.987Z,85.42
2022-12-14T02:19:33.328Z,85.50
2022-12-14T02:22:52.105Z,84.53
2022-12-14T02:25:55.220Z,85.02
2022-12-14T02:29:10.242Z,84.69
2022-12-14T02:31:54.113Z,84.63
2022-12-14T02:35:08.860Z,84.93
2022-12-14T02:38:27.761Z,85.26
2022-12-14T02:42:00.558Z,84.89
2022-12-14T02:45:45.559Z,85.51
2022-12-14T02:49:01.707Z,85.59
2022-12-14T02:52:04.798Z,85.57
2022-12-14T02:54:49.366Z,85.37
2022-12-14T02:58:01.910Z,84.88
2022-12-14T03:00:37.107Z,85.08
2022-12-14T03:03:09.667Z,85.19
2022-12-14T03:05:41.715Z,84.61
2022-12-14T03:08:16.979Z,84.43
2022-12-14T03:10:55.409Z,84.06
2022-12-14T03:13:38.383Z,84.15
2022-12-14T03:16:32.610Z,83.92
2022-12-14T03:19:24.927Z,84.16
2022-12-14T03:22:03.611Z,84.03
2022-12-14T03:24:44.105Z,84.17
2022-12-14T03:27:31.390Z,84.13
2022-12-14T03:30:11.762Z,84.22
2022-12-14T03:32:50.923Z,84.75
2022-12-14T03:35:33.578Z,84.46
2022-12-14T03:38:21.405Z,84.03
2022-12-14T03:41:07.073Z,84.03
2022-12-14T03:44:18.222Z,83.51
2022-12-14T03:47:04.380Z,84.27
2022-12-14T03:50:02.135Z,84.00
2022-12-14T03:52:45.813Z,84.65
2022-12-14T03:55:49.490Z,83.83
2022-12-14T03:58:57.153Z,83.70
2022-12-14T04:02:08.482Z,83.64
2022-12-14T04:04:51.166Z,84.01
2022-12-14T04:07:44.294Z,84.05
2022-12-14T04:10:45.113Z,83.69
2022-12-14T04:13:49.138Z,83.90
2022-12-14T04:16:45.900Z,83.18
2022-12-14T04:19:27.743Z,83.25
2022-12-14T04:22:06.619Z,82.89
2022-12-14T04:25:22.955Z,83.34
2022-12-14T04:28:43.364Z,83.34
2022-12-14T04:31:20.441Z,84.05
2022-12-14T04:34:02.444Z,84.10
2022-12-14T04:37:07.799Z,83.57
2022-12-14T04:39:51.317Z,83.38
2022-12-14T04:42:32.447Z,83.33
2022-12-14T04:45:12.485Z,82.88
2022-12-14T04:48:08.180Z,83.68
2022-12-14T04:50:52.612Z,83.84
2022-12-14T04:53:29.512Z,83.84
2022-12-14T04:56:13.087Z,84.28
2022-12-14T04:58:45.164Z,83.70
2022-12-14T05:01:35.658Z,83.07
2022-12-14T05:04:56.741Z,82.90
2022-12-14T05:08:09.857Z,83.14
2022-12-14T05:10:48.803Z,82.95
2022-12-14T05:13:28.642Z,83.09
2022-12-14T05:16:00.880Z,83.31
2022-12-14T05:18:35.580Z,83.44
2022-12-14T05:21:09.796Z,83.48
2022-12-14T05:23:41.753Z,83.37
2022-12-14T05:26:13.667Z,83.57
2022-12-14T05:28:50.243Z,84.26
2022-12-14T05:31:23.467Z,84.62
2022-12-14T05:33:55.433Z,84.56
2022-12-14T05:36:27.489Z,84.53
2022-12-14T05:38:59.456Z,84.06
2022-12-14T05:41:31.380Z,83.95
2022-12-14T05:44:03.399Z,83.71
2022-12-14T05:46:35.328Z,84.47
2022-12-14T05:49:07.368Z,84.74
2022-12-14T05:51:39.453Z,84.45
2022-12-14T05:54:11.448Z,84.12
2022-12-14T05:56:43.464Z,83.87
2022-12-14T05:59:17.391Z,83.75
2022-12-14T06:01:50.709Z,83.67
2022-12-14T06:04:22.892Z,83.92
2022-12-14T06:06:55.034Z,83.24
2022-12-14T06:09:27.062Z,82.99
2022-12-14T06:11:58.987Z,82.09
2022-12-14T06:14:30.963Z,82.24
2022-12-14T06:17:02.989Z,82.63
2022-12-14T06:19:34.931Z,82.54
2022-12-14T06:22:06.845Z,82.85
2022-12-14T06:24:38.776Z,82.60
2022-12-14T06:27:10.772Z,82.58
2022-12-14T06:29:42.830Z,82.89
2022-12-14T06:32:14.816Z,82.67
2022-12-14T06:34:47.049Z,82.68
2022-12-14T06:37:19.356Z,82.66
2022-12-14T06:39:54.417Z,82.99
2022-12-14T06:42:27.445Z,83.00
2022-12-14T06:44:59.419Z,82.87
2022-12-14T06:47:31.389Z,82.72
2022-12-14T06:50:03.582Z,82.47
2022-12-14T06:52:37.526Z,82.32
2022-12-14T06:55:09.647Z,82.44
2022-12-14T06:57:41.999Z,82.12
2022-12-14T07:00:14.599Z,82.04
2022-12-14T07:02:47.163Z,82.04
2022-12-14T07:05:19.354Z,81.96
2022-12-14T07:07:51.254Z,81.91
2022-12-14T07:10:23.207Z,82.64
2022-12-14T07:12:55.227Z,81.82
2022-12-14T07:15:28.422Z,81.57
2022-12-14T07:18:00.465Z,81.35
2022-12-14T07:20:32.368Z,81.33
2022-12-14T07:23:04.331Z,81.58
2022-12-14T07:25:36.350Z,81.45
2022-12-14T07:28:08.337Z,81.27
2022-12-14T07:30:40.247Z,81.39
2022-12-14T07:33:12.176Z,81.41
2022-12-14T07:35:44.083Z,81.45
2022-12-14T07:38:17.136Z,81.64
2022-12-14T07:40:49.246Z,81.55
2022-12-14T07:43:21.527Z,81.13
2022-12-14T07:45:53.760Z,80.61
2022-12-14T07:48:25.964Z,81.02
2022-12-14T07:51:11.857Z,81.01
2022-12-14T07:53:44.299Z,80.78
2022-12-14T07:56:27.148Z,80.77
2022-12-14T07:59:01.509Z,80.81
2022-12-14T08:01:37.194Z,80.05
2022-12-14T08:04:13.409Z,79.97
2022-12-14T08:06:47.061Z,79.79
2022-12-14T08:09:20.299Z,80.30
2022-12-14T08:11:52.335Z,79.58
2022-12-14T08:14:24.363Z,79.39
2022-12-14T08:16:56.468Z,79.32
2022-12-14T08:19:28.514Z,79.52
2022-12-14T08:22:00.611Z,79.53
2022-12-14T08:24:32.798Z,79.50
2022-12-14T08:27:04.978Z,79.00
2022-12-14T08:29:36.993Z,79.56
2022-12-14T08:32:09.172Z,79.23
2022-12-14T08:34:41.231Z,79.35
2022-12-14T08:37:13.229Z,79.47
2022-12-14T08:39:45.170Z,78.74
2022-12-14T08:42:21.601Z,79.38
2022-12-14T08:44:53.599Z,79.27
2022-12-14T08:47:25.639Z,79.20
2022-12-14T08:49:57.779Z,78.87
2022-12-14T08:52:32.783Z,78.45
2022-12-14T08:55:06.718Z,78.54
2022-12-14T08:57:38.744Z,78.73
2022-12-14T09:00:11.787Z,78.87
2022-12-14T09:02:44.005Z,78.83
2022-12-14T09:05:16.142Z,78.98
2022-12-14T09:07:48.154Z,78.73
2022-12-14T09:10:20.211Z,78.37
2022-12-14T09:12:52.191Z,78.67
2022-12-14T09:15:24.112Z,78.81
2022-12-14T09:17:56.092Z,78.58
2022-12-14T09:20:28.094Z,78.40
2022-12-14T09:23:00.111Z,78.50
2022-12-14T09:25:32.063Z,77.47
2022-12-14T09:28:04.037Z,77.77
2022-12-14T09:30:35.993Z,78.11
2022-12-14T09:33:08.116Z,77.97
2022-12-14T09:35:40.090Z,77.76
2022-12-14T09:38:12.128Z,77.66
2022-12-14T09:40:56.029Z,77.50
2022-12-14T09:43:43.011Z,77.54
2022-12-14T09:47:00.280Z,78.13
2022-12-14T09:49:58.588Z,78.12
2022-12-14T09:52:40.359Z,77.50
2022-12-14T09:55:45.456Z,77.34
2022-12-14T09:58:27.974Z,77.27
2022-12-14T10:01:24.301Z,76.89
2022-12-14T10:04:14.711Z,77.08
2022-12-14T10:07:11.827Z,76.88
2022-12-14T10:10:06.103Z,76.34
2022-12-14T10:12:59.864Z,76.51
2022-12-14T10:15:37.133Z,75.94
2022-12-14T10:18:59.379Z,75.77
2022-12-14T10:22:16.516Z,75.22
2022-12-14T10:24:58.615Z,75.21
2022-12-14T10:27:53.988Z,74.77
2022-12-14T10:30:25.760Z,75.00
2022-12-14T10:33:10.959Z,74.55
2022-12-14T10:35:55.458Z,74.43
2022-12-14T10:38:49.141Z,74.75
2022-12-14T10:41:55.115Z,73.99
2022-12-14T10:44:40.471Z,73.53
2022-12-14T10:47:24.594Z,73.73
2022-12-14T10:50:27.516Z,73.46
2022-12-14T10:53:05.696Z,73.91
2022-12-14T10:55:41.791Z,73.23
2022-12-14T10:58:13.804Z,73.40
2022-12-14T11:00:45.843Z,72.70
2022-12-14T11:03:17.932Z,72.71
2022-12-14T11:06:12.901Z,73.40
2022-12-14T11:08:49.430Z,73.44
2022-12-14T11:11:25.251Z,73.43
2022-12-14T11:14:09.076Z,73.01
2022-12-14T11:16:41.928Z,72.74
2022-12-14T11:19:24.363Z,72.45
2022-12-14T11:22:22.186Z,73.02
2022-12-14T11:24:54.809Z,73.00
2022-12-14T11:27:26.875Z,73.44
2022-12-14T11:29:59.079Z,73.24
2022-12-14T11:32:31.201Z,72.76
2022-12-14T11:35:03.425Z,73.13
2022-12-14T11:37:35.378Z,72.77
2022-12-14T11:40:23.084Z,72.52
2022-12-14T11:43:03.714Z,72.22
2022-12-14T11:45:37.351Z,72.42
2022-12-14T11:48:15.309Z,72.50
2022-12-14T11:50:49.476Z,72.29
2022-12-14T11:53:23.032Z,72.22
2022-12-14T11:55:57.692Z,72.01
2022-12-14T11:58:34.396Z,72.23
2022-12-14T12:01:14.956Z,72.04
2022-12-14T12:04:01.284Z,72.29
2022-12-14T12:06:33.385Z,71.86
2022-12-14T12:09:31.125Z,72.40
2022-12-14T12:12:03.910Z,73.12
2022-12-14T12:14:38.845Z,72.51
2022-12-14T12:17:39.103Z,72.39
2022-12-14T12:20:28.532Z,71.96
2022-12-14T12:23:11.788Z,71.01
2022-12-14T12:25:47.659Z,70.77
2022-12-14T12:28:30.345Z,70.40
2022-12-14T12:31:15.108Z,70.70
2022-12-14T12:33:56.827Z,70.50
2022-12-14T12:36:32.409Z,70.72
2022-12-14T12:39:14.907Z,70.49
2022-12-14T12:42:11.966Z,70.08
2022-12-14T12:44:57.995Z,70.97
2022-12-14T12:47:46.089Z,70.09
2022-12-14T12:50:32.478Z,70.90
2022-12-14T12:53:47.977Z,70.94
2022-12-14T12:56:48.286Z,70.87
2022-12-14T12:59:31.434Z,70.68
2022-12-14T13:02:35.435Z,71.21
2022-12-14T13:05:45.583Z,70.30
2022-12-14T13:08:24.159Z,70.44
2022-12-14T13:11:25.054Z,69.62
2022-12-14T13:14:00.647Z,70.70
2022-12-14T13:16:37.284Z,70.74
2022-12-14T13:19:51.728Z,71.78
2022-12-14T13:22:33.920Z,71.63
2022-12-14T13:25:52.702Z,70.67
2022-12-14T13:28:52.231Z,70.26
2022-12-14T13:32:17.833Z,69.82
2022-12-14T13:35:28.681Z,69.62
2022-12-14T13:38:23.480Z,69.81
2022-12-14T13:41:39.224Z,70.68
2022-12-14T13:44:45.028Z,71.15
2022-12-14T13:47:22.561Z,70.87
2022-12-14T13:52:59.745Z,70.21
2022-12-14T13:55:36.419Z,70.01
2022-12-14T13:58:44.388Z,70.41
2022-12-14T14:01:48.512Z,71.17
2022-12-14T14:04:29.982Z,71.43
2022-12-14T14:07:23.621Z,71.99
2022-12-14T14:09:55.500Z,72.28
2022-12-14T14:12:41.717Z,72.06
2022-12-14T14:15:38.110Z,72.36
2022-12-14T14:18:21.848Z,72.71
2022-12-14T14:21:14.072Z,72.99
2022-12-14T14:24:06.547Z,72.96
2022-12-14T14:26:44.621Z,73.09
2022-12-14T14:29:23.181Z,73.02
2022-12-14T14:32:00.843Z,73.40
2022-12-14T14:34:44.901Z,73.46
2022-12-14T14:37:26.541Z,73.93
2022-12-14T14:40:07.597Z,73.86
2022-12-14T14:43:19.684Z,73.62
2022-12-14T14:45:55.661Z,74.04
2022-12-14T14:48:37.748Z,73.86
2022-12-14T14:51:27.113Z,74.31
2022-12-14T14:54:56.116Z,74.61
2022-12-14T14:57:59.556Z,75.44
2022-12-14T15:00:41.893Z,76.07
2022-12-14T15:03:15.219Z,75.88
2022-12-14T15:05:49.755Z,76.38
2022-12-14T15:08:40.401Z,76.29
2022-12-14T15:11:21.845Z,76.34
2022-12-14T15:14:32.737Z,77.28
2022-12-14T15:17:24.186Z,77.39
2022-12-14T15:20:02.524Z,77.88
2022-12-14T15:22:42.535Z,78.26
2022-12-14T15:25:29.731Z,78.25
2022-12-14T15:28:07.661Z,78.35
2022-12-14T15:30:47.894Z,78.47
2022-12-14T15:33:25.272Z,78.37
2022-12-14T15:36:08.441Z,78.09
2022-12-14T15:38:40.369Z,78.50
2022-12-14T15:41:17.461Z,78.54
2022-12-14T15:43:55.112Z,78.45
2022-12-14T15:46:33.951Z,78.91
2022-12-14T15:49:21.703Z,78.98
2022-12-14T15:51:55.211Z,78.95
2022-12-14T15:54:28.186Z,78.95
2022-12-14T15:57:00.588Z,78.81
2022-12-14T15:59:36.224Z,79.33
2022-12-14T16:02:33.283Z,79.03
2022-12-14T16:05:06.562Z,79.43
2022-12-14T16:07:44.429Z,79.69
2022-12-14T16:10:26.080Z,79.69
2022-12-14T16:13:06.456Z,80.24
2022-12-14T16:15:38.635Z,80.39
2022-12-14T16:18:14.669Z,80.51
2022-12-14T16:20:58.680Z,80.55
2022-12-14T16:23:41.750Z,80.90
2022-12-14T16:26:27.212Z,80.84
2022-12-14T16:29:20.154Z,80.82
2022-12-14T16:32:04.843Z,80.48
2022-12-14T16:34:36.900Z,80.78
2022-12-14T16:37:33.870Z,80.67
2022-12-14T16:40:10.651Z,80.88
2022-12-14T16:42:49.751Z,81.60
2022-12-14T16:45:42.986Z,81.26
2022-12-14T16:48:19.928Z,81.70
2022-12-14T16:50:58.056Z,81.09
2022-12-14T16:53:33.439Z,80.85
2022-12-14T16:56:19.492Z,81.63
2022-12-14T16:59:07.006Z,81.60
2022-12-14T17:01:45.356Z,81.58
2022-12-14T17:04:19.425Z,81.53
2022-12-14T17:06:56.421Z,82.01
2022-12-14T17:09:30.883Z,82.25
2022-12-14T17:12:14.429Z,82.26
2022-12-14T17:14:49.941Z,81.89
2022-12-14T17:17:33.306Z,82.30
2022-12-14T17:20:13.634Z,82.46
2022-12-14T17:22:49.341Z,82.37
2022-12-14T17:25:21.836Z,81.92
2022-12-14T17:27:54.018Z,82.35
2022-12-14T17:30:26.830Z,82.22
2022-12-14T17:32:58.955Z,82.65
2022-12-14T17:35:34.069Z,82.64
2022-12-14T17:38:16.274Z,82.79
2022-12-14T17:40:53.853Z,82.85
2022-12-14T17:43:28.130Z,83.17
2022-12-14T17:46:03.446Z,83.25
2022-12-14T17:48:37.367Z,83.29
2022-12-14T17:51:27.514Z,83.57
2022-12-14T17:53:59.590Z,83.99
2022-12-14T17:56:31.557Z,84.12
2022-12-14T17:59:03.492Z,83.94
2022-12-14T18:01:36.152Z,83.95
2022-12-14T18:04:08.271Z,84.28
2022-12-14T18:06:40.448Z,84.30
2022-12-14T18:09:13.073Z,84.59
2022-12-14T18:12:06.621Z,84.55
2022-12-14T18:14:36.969Z,84.76
2022-12-14T18:17:11.631Z,85.19
2022-12-14T18:19:43.792Z,85.13
2022-12-14T18:22:16.292Z,85.03
2022-12-14T18:24:49.315Z,84.60
2022-12-14T18:27:21.480Z,84.82
2022-12-14T18:29:53.557Z,84.64
2022-12-14T18:32:25.512Z,84.39
2022-12-14T18:34:57.518Z,84.48
2022-12-14T18:37:32.736Z,84.77
2022-12-14T18:40:05.764Z,85.23
2022-12-14T18:42:37.693Z,85.40
2022-12-14T18:45:29.793Z,84.94
2022-12-14T18:48:02.132Z,84.90
2022-12-14T18:50:37.247Z,84.89
2022-12-14T18:53:18.645Z,84.84
2022-12-14T18:55:50.805Z,85.06
2022-12-14T18:58:28.569Z,85.41
2022-12-14T19:01:01.184Z,85.14
2022-12-14T19:03:33.801Z,85.39
2022-12-14T19:09:04.680Z,85.49
2022-12-14T19:11:40.197Z,85.28
2022-12-14T19:14:12.569Z,85.79
2022-12-14T19:16:44.597Z,85.96
2022-12-14T19:19:19.956Z,86.15
2022-12-14T19:21:54.809Z,86.07
2022-12-14T19:24:26.744Z,85.77
2022-12-14T19:26:58.919Z,85.78
2022-12-14T19:29:30.935Z,85.68
2022-12-14T19:32:05.625Z,86.14
2022-12-14T19:34:38.030Z,86.18
2022-12-14T19:37:10.016Z,86.22
2022-12-14T19:39:41.983Z,86.00
2022-12-14T19:42:14.099Z,86.60
2022-12-14T19:44:46.811Z,86.41
2022-12-14T19:47:21.324Z,86.74
2022-12-14T19:49:53.281Z,86.64
2022-12-14T19:52:25.947Z,86.19
2022-12-14T19:54:57.880Z,86.14
2022-12-14T19:57:29.976Z,86.11
2022-12-14T20:00:02.643Z,86.44
2022-12-14T20:02:35.892Z,86.30
2022-12-14T20:05:08.685Z,86.02
2022-12-14T20:07:43.953Z,86.48
2022-12-14T20:10:16.478Z,86.89
2022-12-14T20:12:48.480Z,86.96
2022-12-14T20:15:20.440Z,86.79
2022-12-14T20:17:52.477Z,87.15
2022-12-14T20:20:24.446Z,87.38
2022-12-14T20:22:56.439Z,87.39
2022-12-14T20:25:28.499Z,87.52
2022-12-14T20:28:00.461Z,87.66
2022-12-14T20:30:33.893Z,87.92
2022-12-14T20:33:06.270Z,87.64
2022-12-14T20:35:38.427Z,86.96
2022-12-14T20:38:10.713Z,86.71
2022-12-14T20:40:42.681Z,86.51
2022-12-14T20:43:14.617Z,86.32
2022-12-14T20:45:46.777Z,86.79
2022-12-14T20:48:18.799Z,86.27
2022-12-14T20:50:55.000Z,86.25
2022-12-14T20:53:31.210Z,86.32
2022-12-14T20:56:04.965Z,86.59
2022-12-14T20:58:36.949Z,86.22
2022-12-14T21:01:13.411Z,86.63
2022-12-14T21:03:47.292Z,86.71
2022-12-14T21:06:22.692Z,86.32
2022-12-14T21:09:10.219Z,86.07
2022-12-14T21:12:07.686Z,85.99
2022-12-14T21:14:42.713Z,85.63
2022-12-14T21:17:15.125Z,85.72
2022-12-14T21:19:47.272Z,85.66
2022-12-14T21:22:26.112Z,85.43
2022-12-14T21:25:06.629Z,85.36
2022-12-14T21:27:39.854Z,85.45
2022-12-14T21:30:12.740Z,85.28
2022-12-14T21:32:44.724Z,85.78
2022-12-14T21:35:18.491Z,85.85
2022-12-14T21:37:50.418Z,85.85
2022-12-14T21:40:40.805Z,85.63
2022-12-14T21:43:12.898Z,85.33
2022-12-14T21:45:46.200Z,86.01
2022-12-14T21:48:18.310Z,85.93
2022-12-14T21:50:50.277Z,85.75
2022-12-14T21:53:22.275Z,85.99
2022-12-14T21:56:14.270Z,86.44
2022-12-14T21:58:54.104Z,86.48
2022-12-14T22:01:26.248Z,86.20
2022-12-14T22:03:58.212Z,86.20
2022-12-14T22:06:30.766Z,85.90
2022-12-14T22:09:04.354Z,86.55
2022-12-14T22:11:36.382Z,86.88
2022-12-14T22:14:12.996Z,86.83
2022-12-14T22:16:45.300Z,86.92
2022-12-14T22:19:23.660Z,86.56
2022-12-14T22:21:55.737Z,86.64
2022-12-14T22:24:29.122Z,86.08
2022-12-14T22:27:01.151Z,86.37
2022-12-14T22:29:33.181Z,86.43
2022-12-14T22:32:06.261Z,86.42
2022-12-14T22:34:38.274Z,86.89
2022-12-14T22:37:11.514Z,86.47
2022-12-14T22:39:43.585Z,86.85
2022-12-14T22:42:16.460Z,86.50
2022-12-14T22:44:49.178Z,86.32
2022-12-14T22:47:21.154Z,86.46
2022-12-14T22:49:53.120Z,86.14
2022-12-14T22:52:25.257Z,86.08
2022-12-14T22:54:57.596Z,85.90
2022-12-14T22:57:30.727Z,85.51
2022-12-14T23:00:14.529Z,85.65
2022-12-14T23:02:48.634Z,85.61
2022-12-14T23:05:20.943Z,85.63
2022-12-14T23:07:53.505Z,86.13
2022-12-14T23:10:43.955Z,86.20
2022-12-14T23:13:34.299Z,86.01
2022-12-14T23:16:25.434Z,85.35
2022-12-14T23:19:15.713Z,84.68
2022-12-14T23:22:06.337Z,84.69
2022-12-14T23:24:57.244Z,83.95
2022-12-14T23:27:47.821Z,84.66
2022-12-14T23:30:38.315Z,85.33
2022-12-14T23:33:29.253Z,85.14
2022-12-14T23:36:20.151Z,85.63
2022-12-14T23:39:10.682Z,86.28
2022-12-14T23:42:01.730Z,86.28
2022-12-14T23:44:52.228Z,85.99
2022-12-14T23:47:42.514Z,85.89
2022-12-14T23:50:33.240Z,86.03
2022-12-14T23:53:25.205Z,85.92
2022-12-14T23:56:15.738Z,86.04
2022-12-14T23:59:10.293Z,85.83
